MMGLMMPR

Guest
Details From MMGL - Don Miguel Hidalgo Y Costilla Intl
To MMPR - Licenciado Gustavo Diaz Ordaz Intl
Flight Number -
Tags Decoded
Created
Modified
Stats Distance 110 nm / 204 km
Max Altitude 0 ft / 0 m
Waypoints 2
Social Downloads 2
Likes 0
Share VATSIM

Download

Looking for another format? Having issues loading an existing format? Contact us
Advertisement - Login to hide

Notes

Decoded

Route

MMGL MMPR

ID Type Via Altitude Latitude Longitude Leg Dist Tot Dist Heading (true) Name
O MMGL APT - 0 ft / 0 m 20.52062˚ -103.31188˚ - 0 nm - Don Miguel Hidalgo Y Costilla Intl
O MMPR APT - 0 ft / 0 m 20.67053˚ -105.26511˚ 110 nm 110 nm 275° / 274° -

Altitude Profile

Advertisement - Login to hide

MMGL

Details ICAO MMGL (GDL)
Name Don Miguel Hidalgo Y Costilla Intl
Region Mexico
Timezone America/Mexico_City (UTC-6.0)
Stats Elevation 5,016 ft / 1,529 m (AMSL)
Location 20.524575° -103.308825°
Runways 2
Magnetic Variation 6.248° E

METAR

MMGL 121755Z 00000KT 8SM SCT250 19/M07 A3030 RMK SLP196 57016 979 8/001 ISOL AC

Decode

TAF

TAF MMGL 121119Z 1212/1318 00000KT P6SM SCT250 TX18/1221Z TN04/1212Z FM121700 06010KT P6SM BKN250 FM130200 06005KT P6SM BKN250 FM131700 06010KT P6SM BKN250250

Decode

Departure Runways

ID Width Length Bearing (true) Bearing (mag) Surface Threshold Offset Overrun Length
02 94 ft / 29 m 6,031 ft / 1,838 m 30.09° 23.84° Asphalt 0 ft / 0 m 0 ft / 0 m
10 197 ft / 60 m 13,151 ft / 4,008 m 114.12° 107.87° Concrete 0 ft / 0 m 197 ft / 60 m
20 94 ft / 29 m 6,031 ft / 1,838 m 210.10° 203.85° Asphalt 0 ft / 0 m 0 ft / 0 m
28 197 ft / 60 m 13,151 ft / 4,008 m 294.14° 287.89° Concrete 0 ft / 0 m 197 ft / 60 m

MMPR

Details ICAO MMPR (PVR)
Name LICENCIADO GUSTAVO DIAZ ORDAZ INTL
Region Mexico
Timezone America/Mexico_City (UTC-6.0)
Stats Elevation 23 ft / 7 m (AMSL)
Location 20.680069° -105.254153°
Runways 1
Magnetic Variation 6.890° E

METAR

MMPR 121747Z 00000KT 15SM BKN250 28/13 A2995 RMK SLP144 57016 979 8/002

Decode

TAF

TAF MMPR 121119Z 1212/1318 03005KT P6SM SCT250 TX30/1221Z TN18/1212Z FM121700 20010KT P6SM OVC250 FM130200 03005KT P6SM SCT100 BKN250 FM131700 20010KT P6SM SCT100 OVC250

Decode

Destination Runways

ID Width Length Bearing (true) Bearing (mag) Surface Threshold Offset Overrun Length
04 148 ft / 45 m 10,221 ft / 3,116 m 47.05° 40.16° Asphalt 0 ft / 0 m 185 ft / 56 m
22 148 ft / 45 m 10,221 ft / 3,116 m 227.06° 220.17° Asphalt 0 ft / 0 m 185 ft / 56 m

Popular Alternatives